Timeline UpdatesTrip UpdatesNews PostsPvt PostsTravel TipsAdmin PostsConv PostsFollowed PostsChat RequestsBlog PostsPNR Posts

Disclaimer
Search
 
 
Sun Aug 31, 2014 07:45:43 ISTHomeTrainsΣChainsAtlasPNRForumGalleryNewsFAQTripsMembersLoginFeedback
No Recent News for this Train
Other Trains in the News **new
Latest...
WEF 21-7-2014 Two GN coaches are removed and One HA, One SL attached.
Thu Jul 17, 2014 (07:46AM)
⇐ Return Journey: Train# 15273

15274/Satyagraha Express

Nov 06 2013 (10:32PM)
Change Departure Station:
Change Arrival Station:
Post a Train Travel TipPost a Train Travel Tip **new
Post a Comment/Question/Picture/VideoPost a Comment/Question/Picture/Video
Pantry/Catering
✕ NO Pantry Car
✓ Catering Avbl
No dedicated official catering.
RSA - Rake Sharing
Rake/Coach Composition
SLR-GN-GN-GN-GN-GN-HA1-B1-B2-S1-S2-S3-S4-S5-S6-GN-GN-GN-GN-GN-SLR-Loco=21 Coach Train from 21 July.
Loco
WDM - 3A TKD
News    PNR    Forum    Time-Table    Availability    Fare Chart    Map    Arr/Dep History    Trips    Gallery    ΣChains    X/O    Timeline    
Travel Time: 23h 30m    45 halts    Distance: 962 km    Avg Speed: 40 km/hr
Type: Mail/Express
Zone: ECR/East Central
Departs @ 17:15 (Avg 4m late)
Platform# 12
SMTWTFS
Old Delhi Junction/DLI 
Arrives @ 16:45 +1 night (Avg 19m late)
Platform# ???
SMTWTFS
Raxaul Junction/RXL 

45 halts. 158 intermediate Stations between Old Delhi Junction and Raxaul Junction

Show ALL intermediate Stations  Show Old Time-Table

#CodeStation NameX/OArrivesAvgDepartsAvgHaltPFDay#KmSpeedElevZoneAddress
1DLI»Old Delhi Junction (16)»  -17:15+41210.021219mNRNear Chandni Chowk Metro Station, Delhi NCT
2DSAShahdara Junction (4)  17:33+717:35+72m216.352212mNRCircular Rd, Delhi NCT
3SBBSahibabad Junction (5)  17:43+917:45+92m1113.220209mNRGhaziabad, Uttar Pradesh
4GZBGhaziabad Junction (6)  18:05+218:08+33m1119.961217mNRGhaziabad, Uttar Pradesh
5PKWPilkhua (3)  18:33+2318:35+242m--145.539218mNRPilkhuwa, Uttar Pradesh
6HPUHapur Junction (4)  18:52+2118:54+222m--156.685214mNRHapur Jn., Uttar Pradesh
7GMSGarhmuktesar (3)X  19:15+2919:17+302m1186.460218mNRGarhmukteshwar, Uttar Pradesh
8GJLGajraula Junction (4)  19:38+3219:40+322m11107.368211mNRGujraula, Uttar Pradesh
9AMROAmroha (3)  20:00+3320:02+342m11130.138217mNRAmroha, Uttar Pradesh
10MBMoradabad Junction (7)X  20:50+2221:00+2410m11160.651201mNRMoradabad, Uttar Pradesh
11RMURampur Junction (3)XO  21:32+3321:34+372m--1187.926190mNRRampur, Uttar Pradesh
12MILMilak  22:27-22:29-2m--1211.041180mNRMilak, Uttar Pradesh
13BEBareilly Junction (4)X  23:27+623:35+68m11250.973174mNRBareilly, Uttar Pradesh
14BLPUBilpurX  00:04+1500:06+162m--2286.450161mNRFatehganj, Uttar Pradesh
15SPNShahjahanpur Junction (3)XO  00:48+900:53+105m--2321.455156mNRShahjahanpur, Uttar Pradesh
16ROZARoza Junction (4)  01:01+1401:03+152m--2328.756156mNRShahjahanpur, Uttar Pradesh
17SPCSitapur City Junction  02:28+1002:38+710m--2408.010140mNRSitapur, Uttar Pradesh
18SCCSitapur Cantt. (2)  03:02+403:10+108m--2412.269141mNRSitapur, Uttar Pradesh
19BVNBiswan  03:40+4203:42+422m--2446.773133mNERBiswan, Uttar Pradesh
20MMBMahmudabad Avadh  04:03+4904:05+492m--2472.364131mNERMahmudabad, Uttar Pradesh
21TSFTahsil Fatehpur  04:20+5004:22+502m--2488.239124mNERFatehpur, Uttar Pradesh
22BUWBurhwal Junction (3)X  04:55+3705:00+415m--2509.754119mNERBarabanki, Uttar Pradesh
23JLDJarwal Road (2)X  05:18+4705:20+482m--2525.857112mNERBehraich, Uttar Pradesh
24CLJColonelGanj (2)X  05:38+5305:40+552m22543.035108mNERGonda, Uttar Pradesh
25GDGonda Junction (3)X  06:30+3806:35+415m22572.073110mNERGonda 271001, Uttar Pradesh
26MURMankapur Junction (5)  06:58+4907:00+492m--2599.865104mNERDistrict Gonda, Uttar Pradesh
27MSWMaskanwa (2)  07:13+5207:15+522m--2613.9-103mNERChhapaiya Rd, Uttar Pradesh
28BVBabhnan (2)X  07:20+1:0007:22+1:022m22629.649101mNERDistrict- Basti, Uttar Pradesh
29BSTBasti (4)  08:00+5308:05+525m--2660.46390mNERBasti 272001, Uttar Pradesh
30KLDKhalilabad (3)X  08:33+5008:35+502m--2689.92086mNERKhalilabad- 272175, Uttar Pradesh
31GKPGorakhpur Junction (10)  10:15+910:25+1410m--2723.83784mNERGorakhpur 273001, Uttar Pradesh
32PPCPipraich  10:56+2910:58+302m--2742.83185mNERGorakhpur Bypass, Uttar Pradesh
33CPJKaptanganj JunctionX  11:36+1511:41+165m--2762.55689mNERCaptainganj, Uttar Pradesh
34GHGhughuli  11:57+1811:59+202m--2777.45892mNERGhughli Bazar, Uttar Pradesh
35SBZSiswa BazarX  12:11+2012:13+212m--2789.04194mNERSiswa Bazar, Uttar Pradesh
36KZAKhada12:34+1712:36+172m--2803.32498mNERKhadda Katai Bharpurva Bandh, Uttar Pradesh
37PNYAPaniahwa (2)X  12:53+1112:55+162m--2809.94696mNERPaniyahawa Railway Station, Uttar Pradesh
38BUGBagaha (2)  13:24+2813:26+292m--2832.27593mECRBagaha, Bihar
39BRUBhairoganj  13:40+4413:42+442m--2849.749100mECRBhairoganj, Bihar
40HIRHarinagar  13:52+4513:54+472m--2857.83697mECRRamnagar, Bihar
41NKENarkatiaganj Junction (3)  14:20+3314:25+375m--2873.35789mECRNarkatiaganj, Bihar
42CAIChanpatiaX  14:46+4414:48+472m--2893.25180mECRSikta-Mainatad Rd, Bihar
43BTHBettiah (2)  15:08+4515:10+452m--2910.06679mECRBettiah, Bihar
44MJLMajhowlia  15:19+5015:21+522m--2919.94676mECRVikash Village, Bihar
45SGLSagauli (3)  15:38+3815:40+392m--2932.85073mECRSugauli, Bihar
46RGHRamgarhwa (1)X  15:58+4816:00+522m12947.81975mECRRamgarhwa, Bihar
47RXL•Raxaul Junction (5)•  16:45+19---2962.0-88mECREast Champaran, Bihar
Scroll to Top
Scroll to Bottom